createdAt,value
2022-12-18T00:03:39.577Z,13.68
2022-12-18T00:08:45.313Z,14.73
2022-12-18T00:13:48.715Z,14.57
2022-12-18T00:18:53.449Z,12.80
2022-12-18T00:23:55.205Z,10.80
2022-12-18T00:29:03.519Z,16.85
2022-12-18T00:34:07.583Z,14.85
2022-12-18T00:39:09.523Z,16.42
2022-12-18T00:44:13.735Z,14.43
2022-12-18T00:49:17.987Z,14.50
2022-12-18T00:54:19.639Z,10.82
2022-12-18T00:59:21.336Z,11.85
2022-12-18T01:04:22.988Z,11.50
2022-12-18T01:09:24.629Z,13.25
2022-12-18T01:14:27.410Z,10.40
2022-12-18T01:19:29.647Z,13.30
2022-12-18T01:24:31.307Z,13.25
2022-12-18T01:29:33.042Z,13.18
2022-12-18T01:34:36.749Z,11.18
2022-12-18T01:39:39.192Z,11.48
2022-12-18T01:45:00.919Z,11.23
2022-12-18T01:50:13.258Z,11.38
2022-12-18T01:55:18.063Z,14.13
2022-12-18T02:00:22.165Z,12.70
2022-12-18T02:05:40.103Z,12.95
2022-12-18T02:11:08.536Z,10.52
2022-12-18T02:16:31.344Z,10.27
2022-12-18T02:21:48.276Z,11.15
2022-12-18T02:26:54.300Z,11.10
2022-12-18T02:31:59.870Z,10.35
2022-12-18T02:37:03.560Z,9.80
2022-12-18T02:42:09.146Z,10.20
2022-12-18T02:47:13.693Z,9.85
2022-12-18T02:52:53.111Z,8.52
2022-12-18T02:57:59.990Z,11.45
2022-12-18T03:03:34.375Z,10.48
2022-12-18T03:08:40.554Z,9.98
2022-12-18T03:13:57.103Z,9.65
2022-12-18T03:19:15.781Z,10.10
2022-12-18T03:24:18.569Z,9.07
2022-12-18T03:29:29.051Z,8.25
2022-12-18T03:34:35.255Z,8.73
2022-12-18T03:39:39.004Z,8.27
2022-12-18T03:44:58.866Z,7.13
2022-12-18T03:55:26.064Z,7.25
2022-12-18T04:00:34.159Z,6.88
2022-12-18T04:10:44.502Z,6.38
2022-12-18T04:15:47.410Z,5.93
2022-12-18T04:20:51.184Z,6.70
2022-12-18T04:25:53.490Z,9.05
2022-12-18T04:31:08.575Z,7.93
2022-12-18T04:36:10.811Z,9.25
2022-12-18T04:41:13.021Z,7.15
2022-12-18T04:46:16.029Z,9.25
2022-12-18T04:51:20.867Z,8.40
2022-12-18T04:56:26.353Z,6.72
2022-12-18T05:01:34.088Z,8.27
2022-12-18T05:11:38.010Z,5.25
2022-12-18T05:16:39.718Z,5.45
2022-12-18T05:21:41.460Z,5.20
2022-12-18T05:26:43.183Z,6.18
2022-12-18T05:31:44.896Z,5.53
2022-12-18T05:36:46.621Z,6.03
2022-12-18T05:41:48.293Z,4.85
2022-12-18T05:46:50.011Z,5.80
2022-12-18T05:51:51.758Z,7.22
2022-12-18T05:56:53.412Z,5.57
2022-12-18T06:01:55.236Z,6.88
2022-12-18T06:06:56.944Z,7.50
2022-12-18T06:11:58.566Z,6.30
2022-12-18T06:17:00.175Z,7.22
2022-12-18T06:22:01.822Z,8.52
2022-12-18T06:27:03.479Z,6.70
2022-12-18T06:32:05.404Z,5.70
2022-12-18T06:37:07.090Z,8.23
2022-12-18T06:42:08.725Z,5.65
2022-12-18T06:47:10.492Z,5.43
2022-12-18T06:52:12.138Z,5.88
2022-12-18T06:57:13.919Z,6.53
2022-12-18T07:02:15.696Z,7.57
2022-12-18T07:07:17.447Z,6.07
2022-12-18T07:12:19.131Z,6.13
2022-12-18T07:17:20.748Z,7.47
2022-12-18T07:22:22.889Z,6.20
2022-12-18T07:27:24.533Z,6.95
2022-12-18T07:32:26.202Z,6.85
2022-12-18T07:37:27.807Z,7.13
2022-12-18T07:42:32.004Z,5.75
2022-12-18T07:47:36.088Z,6.40
2022-12-18T07:52:37.731Z,7.78
2022-12-18T07:57:50.713Z,8.25
2022-12-18T08:02:54.339Z,8.48
2022-12-18T08:07:57.169Z,9.35
2022-12-18T08:13:04.465Z,13.38
2022-12-18T08:18:10.085Z,15.30
2022-12-18T08:23:14.488Z,13.00
2022-12-18T08:28:17.870Z,13.70
2022-12-18T08:33:19.531Z,12.13
2022-12-18T08:38:21.156Z,10.30
2022-12-18T08:43:41.516Z,9.48
2022-12-18T08:48:43.485Z,9.48
2022-12-18T08:53:45.662Z,7.95
2022-12-18T08:58:47.609Z,7.40
2022-12-18T09:03:50.301Z,9.18
2022-12-18T09:08:52.002Z,9.63
2022-12-18T09:13:54.900Z,11.30
2022-12-18T09:19:00.489Z,10.43
2022-12-18T09:24:02.274Z,10.98
2022-12-18T09:29:04.663Z,9.45
2022-12-18T09:34:06.266Z,9.68
2022-12-18T09:39:08.993Z,8.27
2022-12-18T09:44:13.887Z,11.02
2022-12-18T09:49:17.826Z,11.27
2022-12-18T09:54:26.942Z,12.60
2022-12-18T09:59:40.146Z,12.20
2022-12-18T10:04:43.032Z,13.07
2022-12-18T10:09:51.145Z,14.63
2022-12-18T10:20:03.941Z,12.90
2022-12-18T10:25:27.428Z,12.65
2022-12-18T10:30:29.174Z,13.60
2022-12-18T10:40:33.324Z,10.60
2022-12-18T10:45:35.065Z,10.50
2022-12-18T10:51:09.657Z,12.10
2022-12-18T10:56:00.545Z,12.18
2022-12-18T11:01:05.884Z,10.40
2022-12-18T11:06:16.345Z,12.85
2022-12-18T11:11:22.892Z,11.57
2022-12-18T11:16:24.950Z,10.70
2022-12-18T11:21:26.625Z,11.95
2022-12-18T11:26:35.593Z,10.93
2022-12-18T11:31:37.437Z,11.80
2022-12-18T11:36:43.486Z,11.55
2022-12-18T11:42:13.074Z,10.95
2022-12-18T11:47:42.566Z,10.60
2022-12-18T11:52:44.317Z,10.75
2022-12-18T11:58:04.449Z,9.23
2022-12-18T12:03:24.859Z,10.25
2022-12-18T12:08:55.087Z,11.23
2022-12-18T12:14:16.597Z,9.73
2022-12-18T12:19:28.236Z,10.68
2022-12-18T12:24:48.444Z,10.15
2022-12-18T12:35:00.988Z,9.82
2022-12-18T12:40:26.738Z,10.70
2022-12-18T12:45:40.712Z,9.50
2022-12-18T12:50:43.049Z,9.65
2022-12-18T12:55:45.164Z,9.75
2022-12-18T13:00:54.507Z,9.85
2022-12-18T13:06:00.563Z,12.05
2022-12-18T13:11:24.843Z,10.88
2022-12-18T13:16:28.564Z,9.60
2022-12-18T13:21:32.295Z,9.38
2022-12-18T13:26:35.253Z,10.30
2022-12-18T13:31:40.064Z,10.43
2022-12-18T13:36:41.784Z,10.10
2022-12-18T13:41:43.654Z,10.75
2022-12-18T13:46:47.683Z,10.93
2022-12-18T13:51:52.398Z,11.15
2022-12-18T13:56:54.414Z,11.13
2022-12-18T14:01:59.008Z,10.85
2022-12-18T14:07:09.524Z,9.98
2022-12-18T14:12:47.266Z,10.57
2022-12-18T14:17:51.655Z,9.65
2022-12-18T14:22:53.637Z,8.70
2022-12-18T14:28:11.276Z,9.20
2022-12-18T14:33:15.734Z,9.90
2022-12-18T14:38:17.411Z,10.93
2022-12-18T14:48:23.695Z,9.77
2022-12-18T14:54:10.104Z,8.90
2022-12-18T14:59:22.203Z,10.20
2022-12-18T15:04:27.298Z,9.68
2022-12-18T15:09:29.089Z,10.18
2022-12-18T15:14:36.992Z,9.60
2022-12-18T15:19:42.464Z,10.48
2022-12-18T15:24:44.173Z,10.63
2022-12-18T15:34:47.442Z,8.88
2022-12-18T15:44:50.701Z,12.07
2022-12-18T15:55:12.613Z,9.13
2022-12-18T16:00:14.697Z,9.75
2022-12-18T16:05:18.067Z,10.68
2022-12-18T16:10:20.030Z,12.35
2022-12-18T16:15:24.722Z,10.38
2022-12-18T16:20:26.769Z,10.50
2022-12-18T16:30:38.172Z,9.82
2022-12-18T16:35:40.578Z,10.20
2022-12-18T16:46:03.903Z,9.18
2022-12-18T16:56:07.528Z,8.93
2022-12-18T17:06:13.027Z,9.13
2022-12-18T17:11:14.770Z,9.43
2022-12-18T17:21:19.876Z,11.30
2022-12-18T17:26:21.614Z,9.25
2022-12-18T17:36:29.007Z,10.60
2022-12-18T17:41:31.638Z,10.15
2022-12-18T17:46:34.340Z,9.35
2022-12-18T17:51:36.104Z,11.32
2022-12-18T18:01:44.500Z,10.02
2022-12-18T18:06:46.895Z,10.07
2022-12-18T18:12:07.139Z,10.82
2022-12-18T18:17:09.018Z,9.10
2022-12-18T18:22:11.214Z,9.80
2022-12-18T18:27:13.142Z,9.85
2022-12-18T18:32:16.913Z,9.18
2022-12-18T18:37:18.938Z,8.38
2022-12-18T18:42:20.607Z,9.25
2022-12-18T18:52:23.955Z,8.25
2022-12-18T18:57:30.131Z,7.95
2022-12-18T19:02:32.434Z,7.82
2022-12-18T19:07:34.203Z,7.75
2022-12-18T19:17:56.694Z,10.60
2022-12-18T19:22:59.295Z,8.43
2022-12-18T19:28:01.009Z,9.50
2022-12-18T19:33:19.922Z,8.60
2022-12-18T19:38:24.669Z,9.43
2022-12-18T19:43:27.524Z,9.50
2022-12-18T19:48:29.413Z,9.02
2022-12-18T19:53:31.054Z,8.40
2022-12-18T20:03:34.678Z,8.43
2022-12-18T20:08:36.945Z,9.85
2022-12-18T20:13:39.107Z,8.68
2022-12-18T20:18:41.052Z,8.60
2022-12-18T20:23:43.970Z,8.13
2022-12-18T20:28:45.931Z,10.88
2022-12-18T20:33:49.953Z,8.73
2022-12-18T20:38:59.330Z,8.65
2022-12-18T20:44:03.531Z,8.30
2022-12-18T20:49:05.301Z,8.50
2022-12-18T20:54:11.509Z,8.48
2022-12-18T20:59:13.579Z,8.93
2022-12-18T21:04:15.580Z,11.43
2022-12-18T21:09:20.453Z,8.50
2022-12-18T21:14:24.896Z,9.50
2022-12-18T21:19:27.287Z,8.18
2022-12-18T21:24:32.768Z,10.38
2022-12-18T21:29:35.089Z,8.48
2022-12-18T21:34:37.362Z,8.65
2022-12-18T21:39:39.747Z,10.20
2022-12-18T21:44:41.828Z,10.27
2022-12-18T21:49:44.271Z,9.95
2022-12-18T21:54:48.809Z,10.35
2022-12-18T21:59:54.489Z,9.48
2022-12-18T22:04:56.180Z,10.38
2022-12-18T22:10:01.280Z,10.60
2022-12-18T22:15:05.141Z,10.32
2022-12-18T22:20:12.641Z,11.23
2022-12-18T22:25:14.896Z,11.02
2022-12-18T22:30:16.559Z,13.15
2022-12-18T22:40:24.608Z,10.80
2022-12-18T22:45:27.902Z,12.23
2022-12-18T22:50:29.817Z,12.77
2022-12-18T22:55:31.519Z,11.75
2022-12-18T23:05:34.846Z,11.32
2022-12-18T23:15:45.715Z,11.73
2022-12-18T23:20:48.332Z,12.35
2022-12-18T23:25:50.852Z,12.68
2022-12-18T23:30:52.677Z,13.68
2022-12-18T23:36:01.354Z,11.85
2022-12-18T23:41:12.865Z,13.15
2022-12-18T23:46:23.799Z,12.27
2022-12-18T23:51:26.123Z,11.95
2022-12-18T23:56:29.806Z,13.35
